Fort Vermillion, Canada
Current Conditions -  °F | °C
As of 3:00 PM on Friday 19 Dec 2014 (Local Time) from CYOJ Reporting Station
Overcast Overcast  
Wind Chill: 19°   Ceiling: 8500
Heat Index: 19°   Visibility: 15mi
Dew Point: 18°   Wind: 0mph
Humidity: 93%   Direction: NA
Pressure: 29.6"   Gusts: NA
Location:  58.4°N, 116°W
Report Text: CYOJ 192200Z 00000KT 15SM BKN085 OVC120 M07/M08 A2960 RMK AC6AC2 SLP054
Loading
Personal Weather Stations






























Interactive Weather Map New forecast layout! Learn more

10-Day Weather Forecast

Advertisements
Track Severe Weather on mobile